Terminal Aerodrome Forecast
Issued by NWS

Home | Current Version | Previous Version | Graphics & Text | Print | Product List | Glossary Off
Versions: 1 2 3 4 5 6 7 8 9 10 11 12 13 14 15 16 17 18 19

000
FTUS42 KMHX 272321
TAFPGV
TAF
KPGV 272321Z 2800/2824 36003KT P6SM BKN250
      TEMPO 2803/2807 5SM BR OVC007
     FM280800 03006KT P6SM SCT250
     FM281500 04010KT P6SM BKN150
      AMD LTD TO CLD VIS AND WIND=

USA.gov is the U.S. government's official web portal to all federal, state and local government web resources and services.